Time;durP1;ratioP1;P1;durP2;ratioP2;P2;SDS_P1;SDS_P2;PMS_P1;PMS_P2;Temp;Humidity;BMP_temperature;BMP_pressure;BME280_temperature;BME280_humidity;BME280_pressure;Samples;Min_cycle;Max_cycle;Signal;HPM_P1;HPM_P2
2023/10/14 00:01:10;;;;;;;0.20;0.20;;;13.70;99.90;;;;;;5028485;28;20454;-85
2023/10/14 00:03:36;;;;;;;0.20;0.20;;;13.60;99.90;;;;;;5026339;28;20446;-87
2023/10/14 00:06:06;;;;;;;0.10;0.10;;;13.70;99.90;;;;;;5021676;28;20537;-86
2023/10/14 00:08:32;;;;;;;0.10;0.10;;;13.60;99.90;;;;;;5010116;28;20492;-85
2023/10/14 00:11:07;;;;;;;0.10;0.10;;;13.60;99.90;;;;;;5016438;28;20450;-85
2023/10/14 00:14:17;;;;;;;0.10;0.10;;;13.50;99.90;;;;;;5027629;28;20869;-86
2023/10/14 00:18:59;;;;;;;0.20;0.20;;;13.40;99.90;;;;;;5012190;28;20443;-86
2023/10/14 00:21:26;;;;;;;0.10;0.10;;;13.50;99.90;;;;;;5015872;28;20446;-85
2023/10/14 00:24:01;;;;;;;0.20;0.20;;;13.40;99.90;;;;;;5015911;28;20483;-85
2023/10/14 00:26:27;;;;;;;0.10;0.10;;;13.40;99.90;;;;;;5023713;28;20908;-86
2023/10/14 00:31:38;;;;;;;0.10;0.10;;;13.30;99.90;;;;;;5020814;28;20449;-85
2023/10/14 00:34:04;;;;;;;0.20;0.20;;;13.30;99.90;;;;;;5025181;28;20457;-85
2023/10/14 00:36:31;;;;;;;0.10;0.10;;;13.40;99.90;;;;;;5027079;28;20442;-85
2023/10/14 00:39:12;;;;;;;0.10;0.10;;;13.40;99.90;;;;;;5030678;28;20273;-85
2023/10/14 00:41:46;;;;;;;0.10;0.10;;;13.40;99.90;;;;;;5022810;28;20449;-84
2023/10/14 00:44:12;;;;;;;0.10;0.10;;;13.30;99.90;;;;;;5017193;28;20451;-84
2023/10/14 00:46:49;;;;;;;0.10;0.10;;;13.20;99.90;;;;;;5024245;28;20815;-84
2023/10/14 00:49:23;;;;;;;0.10;0.10;;;13.10;99.90;;;;;;5020180;28;20627;-84
2023/10/14 00:51:57;;;;;;;0.20;0.20;;;13.10;99.90;;;;;;5016893;28;20446;-85
2023/10/14 00:57:20;;;;;;;0.10;0.10;;;13.00;99.90;;;;;;5016644;28;20454;-84
2023/10/14 00:59:50;;;;;;;0.10;0.10;;;13.00;99.90;;;;;;5030009;28;20422;-85
2023/10/14 01:02:29;;;;;;;0.10;0.10;;;12.90;99.90;;;;;;5021033;28;20446;-85
2023/10/14 01:04:55;;;;;;;0.10;0.10;;;12.90;99.90;;;;;;5014001;28;20532;-85
2023/10/14 01:07:24;;;;;;;0.10;0.10;;;13.10;99.90;;;;;;5017622;28;20488;-85
2023/10/14 01:09:53;;;;;;;0.20;0.20;;;13.10;99.90;;;;;;5023482;28;20982;-85
2023/10/14 01:12:26;;;;;;;0.10;0.10;;;12.90;99.90;;;;;;5015606;28;20910;-85
2023/10/14 01:14:53;;;;;;;0.10;0.10;;;12.90;99.90;;;;;;5024990;28;20487;-86
2023/10/14 01:19:54;;;;;;;0.10;0.10;;;12.90;99.90;;;;;;5016372;28;20443;-85
2023/10/14 01:22:20;;;;;;;0.10;0.10;;;12.90;99.90;;;;;;5018281;28;20470;-85
2023/10/14 01:24:45;;;;;;;0.10;0.10;;;12.90;99.90;;;;;;5018002;28;20516;-85
2023/10/14 01:27:13;;;;;;;0.10;0.10;;;12.90;99.90;;;;;;5016781;28;20890;-85
2023/10/14 01:29:40;;;;;;;0.20;0.20;;;12.90;99.90;;;;;;5023488;28;20266;-84
2023/10/14 01:32:42;;;;;;;0.10;0.10;;;12.90;99.90;;;;;;5025477;28;20503;-84
2023/10/14 01:35:42;;;;;;;0.10;0.10;;;12.80;99.90;;;;;;5020882;28;20504;-86
2023/10/14 01:38:00;;;;;;;0.10;0.10;;;12.80;99.90;;;;;;5024804;28;20449;-86
2023/10/14 01:43:12;;;;;;;0.20;0.20;;;12.80;99.90;;;;;;5015031;28;20503;-84
2023/10/14 01:48:25;;;;;;;0.10;0.10;;;12.70;99.90;;;;;;5027137;28;20489;-85
2023/10/14 01:50:55;;;;;;;0.10;0.10;;;12.80;99.90;;;;;;5019844;28;20457;-86
2023/10/14 01:53:27;;;;;;;0.13;0.13;;;12.70;99.90;;;;;;5017591;28;20550;-86
2023/10/14 01:55:54;;;;;;;0.20;0.20;;;12.70;99.90;;;;;;4992897;28;20461;-86
2023/10/14 01:58:32;;;;;;;0.10;0.10;;;12.70;99.90;;;;;;5023900;28;20468;-85
2023/10/14 02:03:43;;;;;;;0.10;0.10;;;12.50;99.90;;;;;;5022073;28;20441;-85
2023/10/14 02:06:16;;;;;;;0.20;0.20;;;12.60;99.90;;;;;;5002833;28;20455;-84
2023/10/14 02:08:51;;;;;;;0.10;0.10;;;12.50;99.90;;;;;;5028460;28;20482;-85
2023/10/14 02:11:20;;;;;;;0.10;0.10;;;12.40;99.90;;;;;;5013998;28;20452;-86
2023/10/14 02:13:46;;;;;;;0.10;0.10;;;12.30;99.90;;;;;;5017582;28;20438;-85
2023/10/14 02:16:11;;;;;;;0.10;0.10;;;12.30;99.90;;;;;;5008988;28;20453;-86
2023/10/14 02:18:37;;;;;;;0.10;0.10;;;12.30;99.90;;;;;;5010300;28;20192;-86
2023/10/14 02:21:05;;;;;;;0.10;0.10;;;12.30;99.90;;;;;;5027608;28;20644;-84
2023/10/14 02:23:44;;;;;;;0.20;0.20;;;12.20;99.90;;;;;;5024397;28;20490;-85
2023/10/14 02:26:24;;;;;;;0.20;0.20;;;12.10;99.90;;;;;;5016005;28;20462;-84
2023/10/14 02:28:54;;;;;;;0.20;0.20;;;12.10;99.90;;;;;;5027265;28;20489;-84
2023/10/14 02:33:54;;;;;;;0.20;0.20;;;12.20;99.90;;;;;;5031463;28;20522;-84
2023/10/14 02:36:20;;;;;;;0.20;0.20;;;12.10;99.90;;;;;;5026867;28;20446;-84
2023/10/14 02:38:54;;;;;;;0.20;0.20;;;12.10;99.90;;;;;;5025045;28;20446;-85
2023/10/14 02:41:20;;;;;;;0.10;0.10;;;12.20;99.90;;;;;;5024961;28;20778;-84
2023/10/14 02:43:49;;;;;;;0.17;0.17;;;12.10;99.90;;;;;;5026814;28;21184;-85
2023/10/14 02:46:21;;;;;;;0.20;0.20;;;12.10;99.90;;;;;;5009621;28;20496;-84
2023/10/14 02:48:52;;;;;;;0.10;0.10;;;12.00;99.90;;;;;;5028849;28;20496;-84
2023/10/14 02:51:29;;;;;;;0.10;0.10;;;12.00;99.90;;;;;;5011787;28;20435;-84
2023/10/14 02:53:56;;;;;;;0.10;0.10;;;12.00;99.90;;;;;;5029914;28;20442;-84
2023/10/14 02:56:32;;;;;;;0.10;0.10;;;11.90;99.90;;;;;;5031495;28;20422;-84
2023/10/14 02:58:58;;;;;;;0.20;0.20;;;11.90;99.90;;;;;;5024093;28;20488;-84
2023/10/14 03:01:31;;;;;;;0.20;0.20;;;11.80;99.90;;;;;;5061942;22;20493;-84
2023/10/14 03:04:07;;;;;;;0.10;0.10;;;11.90;99.90;;;;;;5047311;28;20557;-84
2023/10/14 03:06:46;;;;;;;0.20;0.20;;;11.80;99.90;;;;;;5052291;28;20458;-83
2023/10/14 03:09:17;;;;;;;0.10;0.10;;;11.80;99.90;;;;;;5048379;28;20444;-87
2023/10/14 03:11:49;;;;;;;0.10;0.10;;;11.80;99.90;;;;;;5057764;28;20490;-86
2023/10/14 03:14:17;;;;;;;0.10;0.10;;;11.80;99.90;;;;;;5052663;28;20437;-86
2023/10/14 03:16:44;;;;;;;0.20;0.20;;;11.80;99.90;;;;;;5044711;28;20440;-86
2023/10/14 03:19:10;;;;;;;0.20;0.20;;;11.70;99.90;;;;;;5071547;28;20507;-87
2023/10/14 03:21:40;;;;;;;0.20;0.20;;;11.70;99.90;;;;;;5058871;28;20531;-88
2023/10/14 03:24:06;;;;;;;0.20;0.20;;;11.60;99.90;;;;;;5047915;28;20452;-84
2023/10/14 03:26:32;;;;;;;0.20;0.20;;;11.60;99.90;;;;;;5072800;28;20964;-84
2023/10/14 03:29:04;;;;;;;0.20;0.20;;;11.60;99.90;;;;;;5065552;28;20483;-84
2023/10/14 03:31:35;;;;;;;0.20;0.20;;;11.60;99.90;;;;;;5054471;28;20277;-84
2023/10/14 03:34:00;;;;;;;0.20;0.20;;;11.50;99.90;;;;;;5034272;28;20504;-84
2023/10/14 03:36:29;;;;;;;0.10;0.10;;;11.40;99.90;;;;;;5047614;28;20437;-84
2023/10/14 03:38:56;;;;;;;0.20;0.20;;;11.50;99.90;;;;;;5070220;28;20170;-84
2023/10/14 03:41:37;;;;;;;0.20;0.20;;;11.50;99.90;;;;;;5054162;28;20460;-85
2023/10/14 03:44:09;;;;;;;0.20;0.20;;;11.40;99.90;;;;;;5039214;28;20953;-85
2023/10/14 03:49:20;;;;;;;0.10;0.10;;;11.50;99.90;;;;;;5055259;28;20457;-87
2023/10/14 03:51:47;;;;;;;0.20;0.20;;;11.50;99.90;;;;;;5069960;28;20190;-85
2023/10/14 03:54:19;;;;;;;0.20;0.20;;;11.40;99.90;;;;;;5045447;28;20452;-84
2023/10/14 03:56:45;;;;;;;0.20;0.20;;;11.40;99.90;;;;;;5051506;28;20437;-84
2023/10/14 03:59:23;;;;;;;0.20;0.20;;;11.30;99.90;;;;;;5057815;28;20443;-85
2023/10/14 04:01:54;;;;;;;0.30;0.30;;;11.20;99.90;;;;;;5040641;28;20234;-84
2023/10/14 04:04:21;;;;;;;0.17;0.17;;;11.20;99.90;;;;;;5053178;28;20809;-84
2023/10/14 04:07:13;;;;;;;0.20;0.20;;;11.00;99.90;;;;;;5069600;28;21028;-85
2023/10/14 04:09:43;;;;;;;0.20;0.20;;;11.00;99.90;;;;;;5063415;28;20440;-85
2023/10/14 04:15:04;;;;;;;0.20;0.20;;;10.90;99.90;;;;;;5052048;28;20459;-85
2023/10/14 04:17:30;;;;;;;0.30;0.30;;;11.00;99.90;;;;;;5059055;28;20947;-85
2023/10/14 04:25:19;;;;;;;0.20;0.20;;;10.90;99.90;;;;;;5054735;28;20448;-85
2023/10/14 04:31:06;;;;;;;0.20;0.20;;;11.00;99.90;;;;;;5053277;28;20447;-84
2023/10/14 04:33:17;;;;;;;0.20;0.20;;;11.00;99.90;;;;;;5052992;28;20480;-85
2023/10/14 04:36:09;;;;;;;0.10;0.10;;;11.10;99.90;;;;;;5060440;28;20466;-84
2023/10/14 04:38:38;;;;;;;0.20;0.20;;;11.10;99.90;;;;;;5066028;28;20483;-85
2023/10/14 04:41:13;;;;;;;0.17;0.17;;;11.10;99.90;;;;;;5063380;28;20419;-85
2023/10/14 04:46:16;;;;;;;0.10;0.10;;;11.00;99.90;;;;;;5059056;28;20443;-85
2023/10/14 04:48:50;;;;;;;0.20;0.20;;;11.10;99.90;;;;;;5041258;28;21056;-86
2023/10/14 04:51:18;;;;;;;0.20;0.20;;;11.00;99.90;;;;;;5040129;28;20457;-85
2023/10/14 04:53:44;;;;;;;0.20;0.20;;;11.00;99.90;;;;;;5049953;28;20491;-85
2023/10/14 04:56:21;;;;;;;0.20;0.20;;;11.00;99.90;;;;;;5052128;28;20441;-84
2023/10/14 04:58:47;;;;;;;0.20;0.20;;;11.00;99.90;;;;;;5063501;28;20447;-85
2023/10/14 05:01:19;;;;;;;0.20;0.20;;;10.90;99.90;;;;;;5042068;28;20480;-84
2023/10/14 05:03:46;;;;;;;0.20;0.20;;;10.90;99.90;;;;;;5058189;28;20863;-84
2023/10/14 05:08:55;;;;;;;0.20;0.20;;;10.80;99.90;;;;;;5059015;28;20576;-85
2023/10/14 05:11:25;;;;;;;0.10;0.10;;;10.70;99.90;;;;;;5056783;28;21203;-87
2023/10/14 05:14:09;;;;;;;0.20;0.20;;;10.70;99.90;;;;;;5064243;28;20534;-88
2023/10/14 05:16:57;;;;;;;0.20;0.20;;;10.60;99.90;;;;;;5058303;28;20824;-87
2023/10/14 05:19:24;;;;;;;0.20;0.20;;;10.70;99.90;;;;;;5038298;28;21423;-87
2023/10/14 05:21:57;;;;;;;0.20;0.20;;;10.70;99.90;;;;;;5033246;28;20437;-84
2023/10/14 05:24:28;;;;;;;0.20;0.20;;;10.60;99.90;;;;;;5059162;28;20809;-85
2023/10/14 05:27:01;;;;;;;0.20;0.20;;;10.60;99.90;;;;;;5050169;28;20440;-90
2023/10/14 05:29:28;;;;;;;0.10;0.10;;;10.60;99.90;;;;;;5069207;28;20807;-87
2023/10/14 05:32:06;;;;;;;0.20;0.20;;;10.50;99.90;;;;;;5044327;28;20901;-88
2023/10/14 05:34:33;;;;;;;0.20;0.20;;;10.50;99.90;;;;;;5050084;28;20890;-87
2023/10/14 05:37:00;;;;;;;0.20;0.20;;;10.50;99.90;;;;;;5050111;28;20441;-85
2023/10/14 05:39:27;;;;;;;0.20;0.20;;;10.50;99.90;;;;;;5072904;28;20446;-85
2023/10/14 05:41:58;;;;;;;0.13;0.13;;;10.40;99.90;;;;;;5069759;28;20444;-86
2023/10/14 05:44:27;;;;;;;0.20;0.20;;;10.40;99.90;;;;;;5069721;28;20432;-85
2023/10/14 05:46:56;;;;;;;0.20;0.20;;;10.50;99.90;;;;;;5058781;28;20523;-85
2023/10/14 05:49:24;;;;;;;0.10;0.10;;;10.40;99.90;;;;;;5046812;28;20582;-86
2023/10/14 05:51:51;;;;;;;0.10;0.10;;;10.40;99.90;;;;;;5069476;28;20448;-86
2023/10/14 05:54:17;;;;;;;0.13;0.13;;;10.40;99.90;;;;;;5071924;28;20428;-86
2023/10/14 05:56:43;;;;;;;0.20;0.20;;;10.40;99.90;;;;;;5069222;28;20589;-85
2023/10/14 05:59:10;;;;;;;0.10;0.10;;;10.40;99.90;;;;;;5052695;28;21022;-88
2023/10/14 06:01:38;;;;;;;0.20;0.20;;;10.50;99.90;;;;;;5051751;28;20320;-86
2023/10/14 06:04:04;;;;;;;0.20;0.20;;;10.40;99.90;;;;;;5064010;28;20440;-86
2023/10/14 06:06:31;;;;;;;0.20;0.20;;;10.50;99.90;;;;;;5069143;28;20789;-86
2023/10/14 06:09:00;;;;;;;0.13;0.13;;;10.50;99.90;;;;;;5050272;28;20213;-85
2023/10/14 06:11:26;;;;;;;0.20;0.20;;;10.50;99.90;;;;;;5066451;28;20444;-85
2023/10/14 06:13:51;;;;;;;0.20;0.20;;;10.60;99.90;;;;;;5062068;28;21073;-87
2023/10/14 06:16:17;;;;;;;0.20;0.20;;;10.60;99.90;;;;;;5056169;28;20187;-86
2023/10/14 06:18:47;;;;;;;0.20;0.20;;;10.60;99.90;;;;;;5037634;28;20197;-91
2023/10/14 06:21:15;;;;;;;0.20;0.20;;;10.70;99.90;;;;;;5062546;28;20315;-84
2023/10/14 06:23:46;;;;;;;0.20;0.20;;;10.60;99.90;;;;;;5054741;28;20463;-88
2023/10/14 06:26:18;;;;;;;0.20;0.20;;;10.60;99.90;;;;;;5050756;28;20475;-85
2023/10/14 06:28:45;;;;;;;0.20;0.20;;;10.60;99.90;;;;;;5037149;28;20487;-85
2023/10/14 06:31:11;;;;;;;0.20;0.20;;;10.60;99.90;;;;;;5064042;28;20447;-85
2023/10/14 06:33:40;;;;;;;0.20;0.20;;;10.60;99.90;;;;;;5061464;28;20448;-86
2023/10/14 06:36:07;;;;;;;0.23;0.23;;;10.70;99.90;;;;;;5039369;28;20470;-85
2023/10/14 06:38:33;;;;;;;0.27;0.27;;;10.60;99.90;;;;;;5050101;28;20523;-84
2023/10/14 06:41:01;;;;;;;0.20;0.20;;;10.70;99.90;;;;;;5055436;28;20441;-83
2023/10/14 06:43:28;;;;;;;0.20;0.20;;;10.60;99.90;;;;;;5067503;28;20543;-85
2023/10/14 06:45:54;;;;;;;0.20;0.20;;;10.50;99.90;;;;;;5054353;28;20944;-85
2023/10/14 06:48:20;;;;;;;0.20;0.20;;;10.50;99.90;;;;;;5053633;28;20515;-88
2023/10/14 06:50:48;;;;;;;0.20;0.20;;;10.50;99.90;;;;;;5072304;28;20494;-86
2023/10/14 06:53:15;;;;;;;0.20;0.20;;;10.60;99.90;;;;;;5067986;28;20447;-86
2023/10/14 06:55:41;;;;;;;0.20;0.20;;;10.70;99.90;;;;;;5066316;28;20467;-86
2023/10/14 06:58:11;;;;;;;0.20;0.20;;;10.80;99.90;;;;;;5054663;28;20444;-87
2023/10/14 07:00:38;;;;;;;0.20;0.20;;;10.80;99.90;;;;;;5070840;28;20464;-87
2023/10/14 07:03:12;;;;;;;0.20;0.20;;;10.80;99.90;;;;;;5053981;28;20436;-87
2023/10/14 07:05:48;;;;;;;0.20;0.20;;;10.80;99.90;;;;;;5055885;28;20827;-87
2023/10/14 07:08:21;;;;;;;0.20;0.20;;;10.90;99.90;;;;;;5058213;28;20483;-89
2023/10/14 07:10:50;;;;;;;0.20;0.20;;;11.10;99.90;;;;;;5058601;28;20477;-91
2023/10/14 07:13:17;;;;;;;0.20;0.20;;;11.10;99.90;;;;;;5046718;28;20844;-93
2023/10/14 07:15:44;;;;;;;0.20;0.20;;;11.10;99.90;;;;;;5063155;28;20434;-91
2023/10/14 07:18:13;;;;;;;0.20;0.20;;;11.20;99.90;;;;;;5056019;28;20456;-91
2023/10/14 07:20:46;;;;;;;0.20;0.20;;;11.30;99.90;;;;;;5067723;28;20923;-91
2023/10/14 07:23:11;;;;;;;0.20;0.20;;;11.40;99.90;;;;;;5056304;28;20509;-93
2023/10/14 07:25:41;;;;;;;0.20;0.20;;;11.40;99.90;;;;;;5071139;28;20535;-91
2023/10/14 07:28:13;;;;;;;0.10;0.10;;;11.50;99.90;;;;;;5074161;28;20206;-91
2023/10/14 07:30:45;;;;;;;0.20;0.20;;;11.60;99.90;;;;;;5078959;28;20983;-93
2023/10/14 07:33:12;;;;;;;0.20;0.20;;;11.80;99.90;;;;;;5058633;28;20523;-91
2023/10/14 07:35:40;;;;;;;0.20;0.20;;;11.80;99.90;;;;;;5068770;28;20432;-92
2023/10/14 07:38:06;;;;;;;0.10;0.10;;;11.90;99.90;;;;;;5064969;28;20437;-93
2023/10/14 07:40:33;;;;;;;0.10;0.10;;;11.90;99.90;;;;;;5075093;28;20948;-91
2023/10/14 07:43:07;;;;;;;0.10;0.10;;;11.90;99.90;;;;;;5072744;28;20416;-92
2023/10/14 07:45:35;;;;;;;0.20;0.20;;;12.10;99.90;;;;;;5075618;28;20474;-92
2023/10/14 07:48:08;;;;;;;0.10;0.10;;;12.10;99.90;;;;;;5074309;28;20472;-96
2023/10/14 07:50:35;;;;;;;0.10;0.10;;;12.20;99.90;;;;;;5076730;28;20456;-95
2023/10/14 07:53:07;;;;;;;0.10;0.10;;;12.20;99.90;;;;;;5072858;28;20433;-96
2023/10/14 07:55:35;;;;;;;0.20;0.20;;;12.40;99.90;;;;;;5073887;28;20420;-96
2023/10/14 07:58:01;;;;;;;0.20;0.20;;;12.60;99.90;;;;;;5075368;28;20513;-95
2023/10/14 08:00:37;;;;;;;0.10;0.10;;;12.80;99.90;;;;;;5077667;28;20464;-95
2023/10/14 08:03:06;;;;;;;0.10;0.10;;;12.90;99.90;;;;;;5075611;28;20533;-94
2023/10/14 08:05:37;;;;;;;0.10;0.10;;;13.10;99.90;;;;;;5075586;28;20435;-92
2023/10/14 08:08:06;;;;;;;0.10;0.10;;;12.50;99.90;;;;;;5074214;28;20490;-95
2023/10/14 08:10:33;;;;;;;0.10;0.10;;;12.20;99.90;;;;;;5054642;28;20547;-94
2023/10/14 08:13:04;;;;;;;0.10;0.10;;;12.40;99.90;;;;;;5063662;28;20460;-95
2023/10/14 08:15:30;;;;;;;0.10;0.10;;;12.60;99.90;;;;;;5048759;28;20850;-93
2023/10/14 08:18:00;;;;;;;0.10;0.10;;;12.80;99.90;;;;;;5066709;28;20433;-95
2023/10/14 08:20:28;;;;;;;0.10;0.10;;;13.00;99.90;;;;;;5042878;28;20456;-96
2023/10/14 08:22:53;;;;;;;0.10;0.10;;;12.90;99.90;;;;;;5045765;28;20556;-95
2023/10/14 08:25:21;;;;;;;0.10;0.10;;;12.90;99.90;;;;;;5056688;28;20478;-94
2023/10/14 08:27:50;;;;;;;0.10;0.10;;;13.00;99.90;;;;;;5058763;28;20198;-96
2023/10/14 08:30:16;;;;;;;0.10;0.10;;;13.00;99.90;;;;;;5041079;28;20554;-96
2023/10/14 08:32:43;;;;;;;0.10;0.10;;;13.30;99.90;;;;;;5056093;28;20436;-92
2023/10/14 08:35:16;;;;;;;0.10;0.10;;;13.20;99.90;;;;;;5046577;28;20956;-95
2023/10/14 08:37:52;;;;;;;0.10;0.10;;;13.30;99.90;;;;;;5069831;28;20444;-92
2023/10/14 08:40:22;;;;;;;0.10;0.10;;;13.20;99.90;;;;;;5069711;28;20431;-92
2023/10/14 08:42:51;;;;;;;0.10;0.10;;;13.50;99.90;;;;;;5068306;28;20438;-95
2023/10/14 08:45:22;;;;;;;0.10;0.10;;;13.60;99.90;;;;;;5042094;28;20445;-90
2023/10/14 08:47:52;;;;;;;0.10;0.10;;;13.70;99.90;;;;;;5057921;28;20473;-96
2023/10/14 08:50:25;;;;;;;0.10;0.10;;;13.90;99.90;;;;;;5072852;28;20436;-96
2023/10/14 08:52:53;;;;;;;0.10;0.10;;;14.00;99.90;;;;;;5064945;28;20437;-91
2023/10/14 08:55:20;;;;;;;0.10;0.10;;;14.20;99.90;;;;;;5059401;28;20451;-95
2023/10/14 08:57:47;;;;;;;0.10;0.10;;;14.20;99.90;;;;;;5061192;28;20489;-89
2023/10/14 09:00:23;;;;;;;0.10;0.10;;;14.30;99.90;;;;;;5075660;28;20597;-88
2023/10/14 09:02:54;;;;;;;0.10;0.10;;;14.30;99.90;;;;;;5062442;28;20504;-96
2023/10/14 09:05:20;;;;;;;0.10;0.10;;;14.30;99.90;;;;;;5057515;28;20498;-96
2023/10/14 09:07:51;;;;;;;0.10;0.10;;;14.50;99.90;;;;;;5062243;28;20472;-91
2023/10/14 09:10:19;;;;;;;0.10;0.10;;;14.60;99.90;;;;;;5053265;28;20440;-93
2023/10/14 09:13:03;;;;;;;0.10;0.10;;;14.90;99.90;;;;;;5066345;28;20470;-90
2023/10/14 09:15:34;;;;;;;0.10;0.10;;;14.70;99.90;;;;;;5069333;28;20432;-92
2023/10/14 09:18:00;;;;;;;0.10;0.10;;;14.80;99.90;;;;;;5043124;28;20425;-93
2023/10/14 09:20:40;;;;;;;0.10;0.10;;;14.90;99.90;;;;;;5034520;28;20438;-88
2023/10/14 09:23:29;;;;;;;0.10;0.10;;;15.20;99.90;;;;;;5061608;28;20532;-89
2023/10/14 09:25:57;;;;;;;0.10;0.10;;;15.10;99.90;;;;;;5047651;28;20440;-90
2023/10/14 09:28:25;;;;;;;0.10;0.10;;;15.50;99.90;;;;;;5062658;28;20614;-90
2023/10/14 09:30:52;;;;;;;0.10;0.10;;;15.80;99.90;;;;;;5060584;28;20522;-94
2023/10/14 09:33:19;;;;;;;0.10;0.10;;;15.90;99.90;;;;;;5034060;28;20465;-91
2023/10/14 09:35:48;;;;;;;0.10;0.10;;;15.20;99.90;;;;;;5041991;28;20425;-92
2023/10/14 09:38:19;;;;;;;0.10;0.10;;;14.70;99.90;;;;;;5060786;28;20838;-90
2023/10/14 09:41:07;;;;;;;0.10;0.10;;;14.30;99.90;;;;;;5063943;28;20439;-88
2023/10/14 09:43:41;;;;;;;0.10;0.10;;;14.20;99.90;;;;;;5059978;28;20528;-89
2023/10/14 09:46:09;;;;;;;0.10;0.10;;;14.70;99.90;;;;;;5049766;28;20484;-89
2023/10/14 09:48:35;;;;;;;0.10;0.10;;;14.90;99.90;;;;;;5065843;28;20979;-92
2023/10/14 09:51:05;;;;;;;0.10;0.10;;;15.60;99.90;;;;;;5076227;28;20451;-96
2023/10/14 09:53:36;;;;;;;0.10;0.10;;;15.40;99.90;;;;;;5072175;28;20468;-90
2023/10/14 09:56:05;;;;;;;0.10;0.10;;;15.70;99.90;;;;;;5056411;28;20533;-91
2023/10/14 09:58:42;;;;;;;0.10;0.10;;;16.00;99.90;;;;;;5054381;28;20440;-94
2023/10/14 10:01:19;;;;;;;0.10;0.10;;;15.80;99.90;;;;;;5070107;28;20479;-92
2023/10/14 10:03:58;;;;;;;0.10;0.10;;;14.70;99.90;;;;;;5062601;28;20453;-93
2023/10/14 10:06:35;;;;;;;0.10;0.10;;;13.60;99.90;;;;;;5068469;28;20451;-93
2023/10/14 10:09:26;;;;;;;0.10;0.10;;;12.90;99.90;;;;;;5069665;28;20540;-92
2023/10/14 10:11:54;;;;;;;0.10;0.10;;;12.60;99.90;;;;;;5065741;28;20438;-95
2023/10/14 10:14:20;;;;;;;0.10;0.10;;;12.50;99.90;;;;;;5070825;28;20508;-94
2023/10/14 10:16:54;;;;;;;0.10;0.10;;;12.50;99.90;;;;;;5040767;28;21001;-93
2023/10/14 10:19:21;;;;;;;0.10;0.10;;;12.80;99.90;;;;;;5052993;28;20481;-95
2023/10/14 10:22:20;;;;;;;0.00;0.00;;;14.20;99.90;;;;;;5046095;28;20416;-93
2023/10/14 10:24:46;;;;;;;0.00;0.00;;;15.20;99.90;;;;;;5056726;28;20518;-95
2023/10/14 10:27:14;;;;;;;0.00;0.00;;;15.00;99.90;;;;;;5070731;28;20459;-93
2023/10/14 10:29:50;;;;;;;0.00;0.00;;;14.50;99.90;;;;;;5074627;28;20513;-96
2023/10/14 10:32:18;;;;;;;0.00;0.00;;;13.80;99.90;;;;;;5076781;28;20458;-96
2023/10/14 10:35:06;;;;;;;0.00;0.00;;;13.10;99.90;;;;;;5076905;28;20560;-95
2023/10/14 10:37:39;;;;;;;0.10;0.10;;;12.30;99.90;;;;;;5061368;28;20437;-94
2023/10/14 10:40:10;;;;;;;0.10;0.10;;;12.20;99.90;;;;;;5071239;28;20943;-96
2023/10/14 10:42:46;;;;;;;0.10;0.10;;;12.10;99.90;;;;;;5058617;28;20506;-94
2023/10/14 10:45:22;;;;;;;0.10;0.10;;;12.20;99.90;;;;;;5078124;28;20440;-94
2023/10/14 10:47:54;;;;;;;0.20;0.20;;;12.10;99.90;;;;;;5071480;28;20524;-91
2023/10/14 10:50:25;;;;;;;0.20;0.20;;;12.20;99.90;;;;;;5067719;28;20444;-86
2023/10/14 10:53:10;;;;;;;0.10;0.10;;;12.40;99.90;;;;;;5063305;28;20566;-84
2023/10/14 10:55:38;;;;;;;0.20;0.20;;;12.70;99.90;;;;;;5050256;28;20452;-87
2023/10/14 10:58:04;;;;;;;0.20;0.20;;;12.90;99.90;;;;;;5061454;28;20483;-82
2023/10/14 11:00:31;;;;;;;0.17;0.17;;;12.90;99.90;;;;;;5046369;28;20475;-86
2023/10/14 11:03:00;;;;;;;0.10;0.10;;;12.70;99.90;;;;;;5058088;28;20464;-86
2023/10/14 11:05:26;;;;;;;0.10;0.10;;;12.60;99.90;;;;;;5063811;28;20459;-84
2023/10/14 11:07:53;;;;;;;0.10;0.10;;;12.40;99.90;;;;;;5052479;28;20875;-83
2023/10/14 11:10:30;;;;;;;0.10;0.10;;;12.50;99.90;;;;;;5065046;28;25096;-84
2023/10/14 11:12:58;;;;;;;0.10;0.10;;;13.30;99.90;;;;;;5069772;28;20446;-89
2023/10/14 11:15:34;;;;;;;0.10;0.10;;;15.00;99.90;;;;;;5045833;28;20793;-87
2023/10/14 11:18:01;;;;;;;0.10;0.10;;;16.30;99.90;;;;;;5069584;28;20482;-87
2023/10/14 11:20:40;;;;;;;0.10;0.10;;;16.00;99.90;;;;;;5058044;28;20550;-86
2023/10/14 11:23:09;;;;;;;0.10;0.10;;;15.20;99.90;;;;;;5062194;28;20516;-86
2023/10/14 11:25:40;;;;;;;0.10;0.10;;;14.10;99.90;;;;;;5064651;28;20440;-87
2023/10/14 11:28:10;;;;;;;0.10;0.10;;;13.60;99.90;;;;;;5050241;28;21257;-87
2023/10/14 11:30:43;;;;;;;0.20;0.10;;;13.10;99.90;;;;;;5040423;28;20936;-86
2023/10/14 11:33:10;;;;;;;0.10;0.10;;;12.50;99.90;;;;;;5059408;28;20436;-86
2023/10/14 11:35:38;;;;;;;0.20;0.20;;;12.30;99.90;;;;;;5062599;28;21505;-87
2023/10/14 11:38:08;;;;;;;0.10;0.10;;;12.80;99.90;;;;;;5066036;28;22089;-87
2023/10/14 11:40:39;;;;;;;0.10;0.10;;;13.00;99.90;;;;;;5063903;28;20437;-87
2023/10/14 11:43:06;;;;;;;0.10;0.10;;;12.80;99.90;;;;;;5050718;28;20450;-87
2023/10/14 11:45:31;;;;;;;0.10;0.10;;;12.60;99.90;;;;;;5048772;28;20523;-87
2023/10/14 11:48:00;;;;;;;0.10;0.10;;;12.20;99.90;;;;;;5049899;28;20849;-87
2023/10/14 11:50:26;;;;;;;0.10;0.10;;;12.10;99.90;;;;;;5068967;28;20178;-85
2023/10/14 11:52:53;;;;;;;0.10;0.10;;;12.00;99.90;;;;;;5070716;28;20447;-85
2023/10/14 11:55:19;;;;;;;0.20;0.20;;;11.90;99.90;;;;;;5062645;28;20442;-85
2023/10/14 11:57:48;;;;;;;0.10;0.10;;;11.80;99.90;;;;;;5059288;28;20497;-86
2023/10/14 12:00:20;;;;;;;0.20;0.20;;;11.80;99.90;;;;;;5059404;28;20990;-82
2023/10/14 12:02:46;;;;;;;0.10;0.10;;;11.80;99.90;;;;;;5055713;28;20447;-85
2023/10/14 12:05:13;;;;;;;0.10;0.10;;;11.80;99.90;;;;;;5056108;28;20462;-86
2023/10/14 12:07:39;;;;;;;0.10;0.10;;;11.90;99.90;;;;;;5060409;28;20484;-85
2023/10/14 12:10:06;;;;;;;0.10;0.10;;;13.30;99.90;;;;;;5062563;28;20473;-88
2023/10/14 12:12:31;;;;;;;0.10;0.10;;;14.10;99.90;;;;;;5064283;28;20483;-89
2023/10/14 12:14:58;;;;;;;0.10;0.10;;;15.40;99.90;;;;;;5063853;28;20480;-88
2023/10/14 12:17:23;;;;;;;0.10;0.10;;;16.90;99.90;;;;;;5057443;28;20178;-90
2023/10/14 12:19:49;;;;;;;0.10;0.10;;;17.20;99.90;;;;;;5040333;28;20455;-88
2023/10/14 12:22:15;;;;;;;0.10;0.00;;;18.40;99.90;;;;;;5066214;28;20194;-89
2023/10/14 12:24:40;;;;;;;0.10;0.00;;;17.40;99.90;;;;;;5045973;28;20193;-88
2023/10/14 12:27:13;;;;;;;0.10;0.00;;;18.50;99.90;;;;;;5067153;28;20186;-87
2023/10/14 12:29:39;;;;;;;0.10;0.10;;;18.00;99.90;;;;;;5066749;28;20285;-84
2023/10/14 12:32:12;;;;;;;0.10;0.00;;;17.80;99.90;;;;;;5053520;28;20451;-84
2023/10/14 12:34:39;;;;;;;0.10;0.00;;;18.20;99.90;;;;;;5064924;28;20447;-84
2023/10/14 12:37:07;;;;;;;0.10;0.00;;;18.80;99.90;;;;;;5062657;28;20444;-82
2023/10/14 12:39:44;;;;;;;0.10;0.00;;;18.70;99.90;;;;;;5062494;28;20440;-85
2023/10/14 12:42:09;;;;;;;0.10;0.00;;;18.90;99.90;;;;;;5067393;28;20515;-85
2023/10/14 12:44:35;;;;;;;0.10;0.00;;;17.70;99.90;;;;;;5065057;28;20928;-84
2023/10/14 12:47:10;;;;;;;0.10;0.10;;;16.10;99.90;;;;;;5064119;28;20185;-83
2023/10/14 12:49:37;;;;;;;0.10;0.10;;;15.10;99.90;;;;;;5067691;28;20228;-82
2023/10/14 12:52:12;;;;;;;0.10;0.10;;;14.70;99.90;;;;;;5050519;28;20427;-83
2023/10/14 12:54:41;;;;;;;0.10;0.10;;;15.40;99.90;;;;;;5061756;28;20481;-83
2023/10/14 12:57:08;;;;;;;0.10;0.10;;;16.70;99.90;;;;;;5065205;28;20436;-83
2023/10/14 12:59:40;;;;;;;0.10;0.10;;;16.70;99.90;;;;;;5061859;28;20443;-83
2023/10/14 13:02:08;;;;;;;0.10;0.10;;;17.00;99.90;;;;;;5044842;28;20501;-84
2023/10/14 13:04:41;;;;;;;0.10;0.10;;;16.60;99.90;;;;;;5060424;28;20452;-84
2023/10/14 13:07:11;;;;;;;0.10;0.10;;;15.40;99.90;;;;;;5050007;28;20436;-84
2023/10/14 13:09:38;;;;;;;0.10;0.10;;;14.50;99.90;;;;;;5063343;28;20459;-83
2023/10/14 13:12:15;;;;;;;0.10;0.10;;;14.00;99.90;;;;;;5042602;28;20872;-85
2023/10/14 13:14:41;;;;;;;0.10;0.10;;;13.90;99.90;;;;;;5044270;28;20524;-86
2023/10/14 13:17:07;;;;;;;0.10;0.10;;;14.40;99.90;;;;;;5043159;28;20438;-90
2023/10/14 13:19:36;;;;;;;0.10;0.10;;;16.40;99.90;;;;;;5046700;28;20432;-88
2023/10/14 13:22:14;;;;;;;0.10;0.10;;;17.00;99.90;;;;;;5046948;28;20190;-87
2023/10/14 13:24:40;;;;;;;0.10;0.00;;;17.30;99.90;;;;;;5058668;28;20435;-87
2023/10/14 13:27:06;;;;;;;0.10;0.00;;;17.90;99.90;;;;;;5046085;28;20526;-86
2023/10/14 13:29:32;;;;;;;0.10;0.00;;;17.70;99.90;;;;;;5060031;28;21201;-84
2023/10/14 13:31:59;;;;;;;0.10;0.00;;;17.50;99.90;;;;;;5058467;28;20772;-88
2023/10/14 13:34:25;;;;;;;0.10;0.00;;;18.40;99.90;;;;;;5035990;28;20725;-87
2023/10/14 13:36:50;;;;;;;0.10;0.00;;;19.00;99.90;;;;;;5055003;28;20461;-86
2023/10/14 13:39:16;;;;;;;0.10;0.00;;;18.30;99.90;;;;;;5055005;28;20174;-87
2023/10/14 13:41:48;;;;;;;0.10;0.00;;;18.60;99.90;;;;;;5035045;28;20648;-86
2023/10/14 13:44:15;;;;;;;0.10;0.00;;;19.30;99.90;;;;;;5041820;28;20186;-91